Time;durP1;ratioP1;P1;durP2;ratioP2;P2;SDS_P1;SDS_P2;PMS_P1;PMS_P2;Temp;Humidity;BMP_temperature;BMP_pressure;BME280_temperature;BME280_humidity;BME280_pressure;Samples;Min_cycle;Max_cycle;Signal;HPM_P1;HPM_P2
2023/01/31 00:01:13;;;;;;;;;20.75;20.50;;;;;5.56;74.92;102029.47;4958839;28;45243;-69
2023/01/31 00:03:40;;;;;;;;;25.00;23.75;;;;;5.55;75.52;102028.56;4971777;28;45389;-69
2023/01/31 00:06:09;;;;;;;;;21.50;19.00;;;;;5.54;74.70;102015.53;4972957;28;45235;-69
2023/01/31 00:08:34;;;;;;;;;24.25;24.00;;;;;5.50;74.91;102000.72;4955877;28;46156;-70
2023/01/31 00:10:59;;;;;;;;;23.00;22.25;;;;;5.54;75.00;102008.56;4987845;28;48155;-70
2023/01/31 00:13:28;;;;;;;;;24.50;24.50;;;;;5.53;75.20;102006.81;4972868;28;45368;-73
2023/01/31 00:15:57;;;;;;;;;24.25;24.25;;;;;5.47;75.65;101991.13;4971694;28;45452;-70
2023/01/31 00:18:23;;;;;;;;;18.00;18.00;;;;;5.53;75.65;102012.03;4973084;28;46200;-70
2023/01/31 00:20:48;;;;;;;;;19.50;19.50;;;;;5.50;75.21;102005.94;4973089;28;45419;-70
2023/01/31 00:23:14;;;;;;;;;13.50;13.50;;;;;5.47;75.34;101996.34;4971865;28;45719;-71
2023/01/31 00:25:40;;;;;;;;;23.25;23.25;;;;;5.48;75.34;102003.31;4973809;28;45426;-68
2023/01/31 00:28:05;;;;;;;;;22.25;20.50;;;;;5.44;75.78;102001.56;4973272;28;46439;-69
2023/01/31 00:30:30;;;;;;;;;19.00;19.00;;;;;5.43;75.41;102001.56;4972111;28;45628;-69
2023/01/31 00:32:56;;;;;;;;;21.50;20.75;;;;;5.44;76.01;101998.94;4975057;28;45460;-70
2023/01/31 00:35:21;;;;;;;;;20.75;20.50;;;;;5.36;75.67;101987.63;4973417;28;45356;-69
2023/01/31 00:37:47;;;;;;;;;26.50;25.50;;;;;5.40;75.87;101999.81;4970215;28;46520;-70
2023/01/31 00:40:12;;;;;;;;;19.00;18.00;;;;;5.40;75.27;102005.03;4969229;28;45422;-69
2023/01/31 00:42:37;;;;;;;;;16.00;15.75;;;;;5.38;75.23;102006.75;4970676;28;45486;-70
2023/01/31 00:45:03;;;;;;;;;15.75;15.75;;;;;5.32;75.68;101991.06;4972022;28;45501;-70
2023/01/31 00:47:29;;;;;;;;;15.50;15.50;;;;;5.24;74.96;101983.19;4973417;28;46895;-71
2023/01/31 00:49:55;;;;;;;;;17.50;17.50;;;;;5.34;75.40;101995.44;4971948;28;48225;-70
2023/01/31 00:52:20;;;;;;;;;17.25;16.50;;;;;5.25;75.59;101983.22;4973621;28;45344;-70
2023/01/31 00:54:46;;;;;;;;;17.00;16.00;;;;;5.22;75.48;101982.31;4974298;28;45571;-70
2023/01/31 00:57:11;;;;;;;;;18.75;18.75;;;;;5.29;75.40;101999.75;4976713;28;45352;-68
2023/01/31 00:59:37;;;;;;;;;18.25;17.50;;;;;5.26;75.81;101991.91;4977438;28;45223;-69
2023/01/31 01:02:02;;;;;;;;;14.25;14.25;;;;;5.25;75.96;101990.16;4976227;28;45219;-70
2023/01/31 01:04:27;;;;;;;;;17.50;16.50;;;;;5.24;75.97;101988.41;4976561;28;45532;-71
2023/01/31 01:06:52;;;;;;;;;16.00;16.00;;;;;5.17;76.07;101971.88;4977188;28;46135;-69
2023/01/31 01:09:18;;;;;;;;;17.50;17.50;;;;;5.17;76.23;101971.00;4976219;28;45576;-71
2023/01/31 01:11:43;;;;;;;;;12.75;12.75;;;;;5.19;76.24;101979.69;4975547;28;45423;-69
2023/01/31 01:14:08;;;;;;;;;15.25;15.25;;;;;4.99;76.53;101946.56;4976668;28;45664;-70
2023/01/31 01:16:37;;;;;;;;;15.50;15.50;;;;;5.16;76.39;101980.56;4976716;28;45359;-71
2023/01/31 01:19:10;;;;;;;;;16.25;16.25;;;;;5.16;76.33;101977.06;4980936;28;45410;-69
2023/01/31 01:21:38;;;;;;;;;24.00;22.75;;;;;5.14;76.44;101973.59;4978836;28;45379;-69
2023/01/31 01:24:04;;;;;;;;;18.75;17.75;;;;;5.12;75.96;101977.06;4976857;28;45370;-71
2023/01/31 01:26:31;;;;;;;;;20.50;20.50;;;;;5.11;76.47;101974.47;4976290;28;46500;-70
2023/01/31 01:28:59;;;;;;;;;17.50;17.00;;;;;5.11;76.38;101979.69;4975958;28;45241;-69
2023/01/31 01:31:29;;;;;;;;;21.00;21.00;;;;;5.10;76.47;101975.31;4975437;28;45316;-69
2023/01/31 01:34:00;;;;;;;;;18.25;18.25;;;;;5.09;76.60;101987.47;4974929;28;45353;-69
2023/01/31 01:36:26;;;;;;;;;18.25;18.25;;;;;5.08;76.48;101988.34;4974566;28;45507;-70
2023/01/31 01:38:53;;;;;;;;;23.25;23.00;;;;;5.10;76.81;101989.22;4973858;28;45264;-69
2023/01/31 01:41:20;;;;;;;;;17.50;17.50;;;;;5.12;76.67;101992.72;4974558;28;45235;-70
2023/01/31 01:43:45;;;;;;;;;22.00;19.50;;;;;5.16;76.53;101992.72;4978300;28;45331;-69
2023/01/31 01:46:17;;;;;;;;;19.50;19.50;;;;;5.18;76.80;101988.38;4974765;28;45329;-70
2023/01/31 01:48:47;;;;;;;;;24.75;23.00;;;;;5.20;77.02;101984.03;4974286;28;45800;-69
2023/01/31 01:51:15;;;;;;;;;24.50;24.00;;;;;5.23;76.66;101981.44;4974147;28;45408;-69
2023/01/31 01:53:43;;;;;;;;;22.00;21.00;;;;;5.18;76.65;101965.78;4974085;28;45489;-69
2023/01/31 01:56:18;;;;;;;;;21.25;20.25;;;;;5.26;77.09;101982.34;4973314;28;46333;-69
2023/01/31 01:59:01;;;;;;;;;22.25;22.25;;;;;5.26;76.60;101976.25;4973853;28;45314;-70
2023/01/31 02:01:31;;;;;;;;;26.75;23.50;;;;;5.25;76.77;101974.50;4973534;28;45312;-70
2023/01/31 02:03:57;;;;;;;;;20.00;20.00;;;;;5.25;77.12;101974.50;4973852;28;45585;-69
2023/01/31 02:06:22;;;;;;;;;26.00;24.25;;;;;5.18;77.00;101964.91;4973632;28;46923;-69
2023/01/31 02:08:48;;;;;;;;;23.50;23.50;;;;;5.24;76.86;101971.03;4975133;28;45570;-69
2023/01/31 02:11:22;;;;;;;;;19.75;18.75;;;;;5.19;76.19;101961.44;4973877;28;45566;-69
2023/01/31 02:13:50;;;;;;;;;20.00;20.00;;;;;5.27;76.65;101970.16;4973386;28;45248;-69
2023/01/31 02:16:15;;;;;;;;;18.75;18.75;;;;;5.25;76.51;101967.56;4971525;28;48055;-69
2023/01/31 02:18:42;;;;;;;;;18.75;18.75;;;;;5.27;76.11;101967.56;4973735;28;45444;-70
2023/01/31 02:21:32;;;;;;;;;19.50;19.50;;;;;5.27;76.60;101967.56;4973168;28;45318;-69
2023/01/31 02:24:00;;;;;;;;;20.50;20.50;;;;;5.25;77.10;101972.78;4973527;28;45407;-70
2023/01/31 02:27:03;;;;;;;;;21.00;21.00;;;;;5.23;76.89;101968.41;4973683;28;45473;-70
2023/01/31 02:30:14;;;;;;;;;23.25;23.25;;;;;5.20;76.63;101978.84;4974946;28;45417;-70
2023/01/31 02:33:01;;;;;;;;;19.75;19.75;;;;;5.16;76.67;101969.25;4997994;28;45339;-69
2023/01/31 02:35:43;;;;;;;;;18.00;17.00;;;;;5.09;77.12;101968.38;4973540;28;45471;-69
2023/01/31 02:38:15;;;;;;;;;15.75;15.75;;;;;5.09;76.58;101977.03;4935907;28;1101817;-69
2023/01/31 02:41:01;;;;;;;;;19.50;19.00;;;;;5.08;76.73;101977.91;4974108;28;45280;-70
2023/01/31 02:44:57;;;;;;;;;16.00;15.50;;;;;5.06;76.73;101979.63;4974710;28;45503;-71
2023/01/31 02:46:27;;;;;;;;;15.75;15.75;;;;;5.02;77.66;101977.88;4973940;28;45543;-69
2023/01/31 02:49:01;;;;;;;;;17.00;17.00;;;;;5.00;76.70;101978.75;4973820;28;46008;-68
2023/01/31 02:51:32;;;;;;;;;17.00;17.00;;;;;4.97;77.41;101971.75;4974265;28;45266;-69
2023/01/31 02:54:06;;;;;;;;;20.00;17.75;;;;;4.97;77.44;101974.38;4973961;28;45377;-69
2023/01/31 02:56:35;;;;;;;;;18.50;18.50;;;;;4.94;77.72;101975.25;4974365;28;45384;-71
2023/01/31 02:59:09;;;;;;;;;21.50;18.75;;;;;4.95;77.70;101968.28;4973993;28;47504;-69
2023/01/31 03:01:40;;;;;;;;;21.00;18.75;;;;;4.91;78.07;101962.19;4973481;28;45288;-68
2023/01/31 03:04:09;;;;;;;;;19.00;19.00;;;;;4.89;78.04;101963.03;4972349;28;45437;-69
2023/01/31 03:06:34;;;;;;;;;19.50;17.25;;;;;4.90;77.64;101964.78;4973561;28;45502;-70
2023/01/31 03:09:23;;;;;;;;;18.00;18.00;;;;;4.89;77.90;101968.25;4972741;28;46000;-68
2023/01/31 03:12:19;;;;;;;;;22.25;18.00;;;;;4.88;78.08;101976.94;4973817;28;45415;-70
2023/01/31 03:14:54;;;;;;;;;17.50;16.50;;;;;4.86;78.35;101971.72;4972576;28;45463;-69
2023/01/31 03:17:51;;;;;;;;;17.25;16.75;;;;;4.83;78.26;101967.34;4976816;28;45402;-69
2023/01/31 03:20:43;;;;;;;;;19.00;17.25;;;;;4.84;78.46;101965.63;4973859;28;45590;-70
2023/01/31 03:23:18;;;;;;;;;18.00;18.00;;;;;4.82;78.34;101969.97;4975476;28;45274;-69
2023/01/31 03:25:46;;;;;;;;;17.00;17.00;;;;;4.61;78.35;101940.25;4973707;28;45389;-70
2023/01/31 03:28:16;;;;;;;;;18.00;17.25;;;;;4.79;78.92;101970.78;4973782;28;45264;-70
2023/01/31 03:30:52;;;;;;;;;21.00;19.75;;;;;4.74;78.88;101975.09;4973381;28;47021;-69
2023/01/31 03:33:17;;;;;;;;;21.75;21.00;;;;;4.74;78.81;101977.72;4973757;28;45461;-69
2023/01/31 03:35:50;;;;;;;;;15.50;15.50;;;;;4.71;78.55;101975.09;4973708;28;45204;-69
2023/01/31 03:38:31;;;;;;;;;19.75;16.50;;;;;4.73;78.90;101980.28;4973931;28;45312;-67
2023/01/31 03:41:24;;;;;;;;;16.25;15.00;;;;;4.71;79.01;101975.09;4973175;28;45420;-70
2023/01/31 03:43:57;;;;;;;;;19.75;19.25;;;;;4.66;79.10;101971.59;4977972;28;45843;-69
2023/01/31 03:46:36;;;;;;;;;15.75;13.75;;;;;4.63;79.32;101968.94;4973651;28;45385;-69
2023/01/31 03:49:07;;;;;;;;;17.25;17.25;;;;;4.62;79.01;101978.50;4973814;28;45366;-72
2023/01/31 03:51:37;;;;;;;;;17.00;17.00;;;;;4.62;79.49;101972.41;4973266;28;45431;-69
2023/01/31 03:54:08;;;;;;;;;18.50;16.25;;;;;4.58;79.68;101961.09;4972811;28;45437;-70
2023/01/31 03:56:41;;;;;;;;;18.00;18.00;;;;;4.61;79.60;101966.31;4973336;28;45303;-70
2023/01/31 03:59:11;;;;;;;;;16.00;15.00;;;;;4.62;79.64;101969.81;4974398;28;45555;-69
2023/01/31 04:01:42;;;;;;;;;14.50;14.50;;;;;4.60;79.50;101974.16;4973627;28;45455;-69
2023/01/31 04:04:11;;;;;;;;;15.75;15.75;;;;;4.59;79.59;101970.66;4975932;28;45667;-69
2023/01/31 04:06:37;;;;;;;;;14.75;14.75;;;;;4.58;79.62;101970.66;4973454;28;45256;-70
2023/01/31 04:09:03;;;;;;;;;14.25;14.25;;;;;4.57;79.46;101977.59;4973467;28;45410;-69
2023/01/31 04:11:29;;;;;;;;;17.50;16.50;;;;;4.50;79.42;101966.25;4974281;28;45447;-70
2023/01/31 04:13:54;;;;;;;;;14.75;14.75;;;;;4.51;79.66;101968.00;4970866;28;45521;-69
2023/01/31 04:16:20;;;;;;;;;15.00;13.75;;;;;4.52;79.62;101977.56;4972008;28;45401;-70
2023/01/31 04:18:45;;;;;;;;;15.25;15.00;;;;;4.52;79.77;101971.47;4971551;28;45306;-70
2023/01/31 04:21:13;;;;;;;;;13.25;13.25;;;;;4.51;79.87;101968.00;4975724;28;48961;-70
2023/01/31 04:23:38;;;;;;;;;14.50;14.50;;;;;4.53;79.64;101974.09;4972968;28;45256;-69
2023/01/31 04:26:03;;;;;;;;;14.00;14.00;;;;;4.43;79.62;101956.66;4972469;28;45370;-69
2023/01/31 04:28:29;;;;;;;;;15.00;14.50;;;;;4.47;80.34;101974.06;4972762;28;45495;-68
2023/01/31 04:30:55;;;;;;;;;14.25;14.25;;;;;4.47;80.41;101974.06;4972681;28;45363;-70
2023/01/31 04:33:21;;;;;;;;;16.00;16.00;;;;;4.44;80.12;101973.16;4972890;28;45308;-70
2023/01/31 04:35:47;;;;;;;;;15.25;14.75;;;;;4.47;80.25;101971.44;4973072;28;45354;-68
2023/01/31 04:38:12;;;;;;;;;13.75;13.75;;;;;4.44;80.15;101973.16;4973645;28;45391;-69
2023/01/31 04:40:38;;;;;;;;;14.00;14.00;;;;;4.46;79.69;101989.66;4971712;28;45422;-70
2023/01/31 04:43:03;;;;;;;;;12.50;12.50;;;;;4.44;79.72;101986.16;4972266;28;45381;-73
2023/01/31 04:45:29;;;;;;;;;14.00;12.50;;;;;4.39;79.87;101971.38;4972400;28;45261;-70
2023/01/31 04:47:54;;;;;;;;;14.25;13.75;;;;;4.40;79.88;101985.28;4973107;28;45330;-68
2023/01/31 04:50:19;;;;;;;;;14.25;14.25;;;;;4.38;79.84;101982.66;4974900;28;45375;-69
2023/01/31 04:52:48;;;;;;;;;14.25;14.00;;;;;4.38;79.92;101977.44;4972588;28;45319;-69
2023/01/31 04:55:14;;;;;;;;;14.75;14.75;;;;;4.38;80.15;101968.78;4972601;28;45460;-69
2023/01/31 04:57:39;;;;;;;;;16.00;16.00;;;;;4.18;79.95;101946.00;4973218;28;45375;-70
2023/01/31 05:00:05;;;;;;;;;13.50;13.50;;;;;4.38;80.11;101974.00;4972538;28;58455;-69
2023/01/31 05:02:31;;;;;;;;;15.00;15.00;;;;;4.36;79.92;101975.72;4972983;28;45302;-70
2023/01/31 05:04:56;;;;;;;;;14.50;14.50;;;;;4.36;79.77;101975.72;4972787;28;45401;-69
2023/01/31 05:07:21;;;;;;;;;14.50;14.50;;;;;4.36;79.77;101967.91;4973264;28;45546;-69
2023/01/31 05:09:47;;;;;;;;;14.50;14.50;;;;;4.36;79.83;101962.69;4970505;28;62194;-69
2023/01/31 05:12:12;;;;;;;;;13.75;13.75;;;;;4.31;80.13;101959.16;4972217;28;45262;-70
2023/01/31 05:14:37;;;;;;;;;13.00;13.00;;;;;4.36;79.67;101960.94;4972390;28;53791;-71
2023/01/31 05:17:03;;;;;;;;;15.25;15.25;;;;;4.32;79.94;101958.31;4972774;28;45358;-71
2023/01/31 05:19:29;;;;;;;;;14.25;14.25;;;;;4.35;79.93;101958.34;4971967;28;45971;-70
2023/01/31 05:21:54;;;;;;;;;12.25;12.25;;;;;4.33;79.94;101963.50;4971054;28;45598;-70
2023/01/31 05:24:24;;;;;;;;;14.75;14.75;;;;;4.31;79.91;101948.75;4972836;28;45381;-70
2023/01/31 05:26:51;;;;;;;;;15.00;15.00;;;;;4.32;79.55;101951.34;4975162;28;45334;-69
2023/01/31 05:29:17;;;;;;;;;13.25;13.25;;;;;4.32;79.95;101964.38;4972936;28;46972;-69
2023/01/31 05:31:43;;;;;;;;;15.00;15.00;;;;;4.31;80.14;101949.59;4973933;28;45390;-70
2023/01/31 05:34:10;;;;;;;;;14.50;13.75;;;;;4.29;79.83;101943.50;4975032;28;45343;-70
2023/01/31 05:36:36;;;;;;;;;12.50;12.50;;;;;4.33;79.76;101954.84;4977983;28;45188;-70
2023/01/31 05:39:01;;;;;;;;;10.00;10.00;;;;;4.29;79.98;101966.09;4975008;28;45532;-70
2023/01/31 05:41:26;;;;;;;;;14.00;13.00;;;;;4.32;80.13;101968.72;4957187;28;45361;-70
2023/01/31 05:43:52;;;;;;;;;13.75;13.00;;;;;4.31;80.11;101966.97;4975064;28;45378;-70
2023/01/31 05:46:17;;;;;;;;;8.25;8.25;;;;;4.32;79.78;101968.72;4975362;28;45177;-69
2023/01/31 05:48:42;;;;;;;;;9.75;9.75;;;;;4.32;80.15;101968.72;4974529;28;59503;-70
2023/01/31 05:51:07;;;;;;;;;12.75;12.75;;;;;4.34;79.78;101967.00;4975554;28;54226;-70
2023/01/31 05:53:33;;;;;;;;;11.75;11.50;;;;;4.35;79.98;101972.22;4975602;28;61831;-71
2023/01/31 05:55:58;;;;;;;;;15.00;14.25;;;;;4.37;80.31;101967.88;4975169;28;45409;-68
2023/01/31 05:58:23;;;;;;;;;14.00;14.00;;;;;4.43;80.36;101961.88;4976546;28;46237;-69
2023/01/31 06:00:49;;;;;;;;;13.25;10.00;;;;;4.47;80.21;101966.25;4975495;28;45375;-69
2023/01/31 06:03:14;;;;;;;;;11.50;10.50;;;;;4.52;80.12;101972.34;4974672;28;45346;-69
2023/01/31 06:05:39;;;;;;;;;21.00;17.50;;;;;4.57;79.90;101971.53;4974503;28;45553;-69
2023/01/31 06:08:05;;;;;;;;;10.50;10.50;;;;;4.60;80.16;101968.94;4974157;28;47014;-69
2023/01/31 06:10:31;;;;;;;;;12.00;12.00;;;;;4.68;79.78;101969.84;4974250;28;45368;-69
2023/01/31 06:12:56;;;;;;;;;11.25;11.25;;;;;4.72;79.80;101963.81;4974695;28;45759;-70
2023/01/31 06:15:21;;;;;;;;;10.50;10.50;;;;;4.77;79.75;101967.31;4976331;28;45294;-69
2023/01/31 06:17:47;;;;;;;;;12.00;12.00;;;;;4.80;79.45;101961.25;4974334;28;46064;-69
2023/01/31 06:20:12;;;;;;;;;11.25;10.50;;;;;4.86;79.36;101960.41;4974186;28;51584;-69
2023/01/31 06:22:37;;;;;;;;;10.00;10.00;;;;;4.88;79.20;101969.09;4974589;28;45417;-69
2023/01/31 06:25:03;;;;;;;;;8.50;8.50;;;;;4.90;79.29;101967.38;4975315;28;45404;-70
2023/01/31 06:27:32;;;;;;;;;12.75;12.75;;;;;4.93;79.02;101964.78;4974563;28;45245;-69
2023/01/31 06:29:57;;;;;;;;;20.00;19.50;;;;;4.87;78.86;101954.31;4974615;28;45294;-70
2023/01/31 06:32:22;;;;;;;;;8.75;8.75;;;;;5.00;78.67;101986.56;4975028;28;45177;-71
2023/01/31 06:34:48;;;;;;;;;10.50;10.50;;;;;5.00;78.83;101990.03;4974730;28;45198;-70
2023/01/31 06:37:13;;;;;;;;;11.25;11.25;;;;;5.03;78.62;101990.06;4974278;28;62638;-70
2023/01/31 06:39:38;;;;;;;;;10.50;10.50;;;;;5.06;78.50;101987.47;4975276;28;51433;-70
2023/01/31 06:42:04;;;;;;;;;11.50;10.75;;;;;5.07;78.91;101985.75;4974212;28;59220;-69
2023/01/31 06:44:31;;;;;;;;;10.00;10.00;;;;;5.11;78.10;101993.56;4977478;28;45449;-66
2023/01/31 06:46:57;;;;;;;;;10.00;10.00;;;;;5.11;77.80;102001.41;4979879;28;45355;-68
2023/01/31 06:49:22;;;;;;;;;11.50;9.75;;;;;5.14;78.13;102007.50;4978249;28;44893;-70
2023/01/31 06:51:48;;;;;;;;;12.50;12.50;;;;;5.16;78.18;102004.03;4984792;28;45495;-75
2023/01/31 06:54:13;;;;;;;;;10.25;9.75;;;;;5.22;78.21;102011.00;4986250;28;45261;-76
2023/01/31 06:56:38;;;;;;;;;13.00;10.75;;;;;5.26;78.33;101999.72;4994729;27;49743;-78
2023/01/31 06:59:04;;;;;;;;;10.25;10.25;;;;;5.31;77.85;102005.88;4982904;28;47647;-74
2023/01/31 07:01:29;;;;;;;;;8.00;8.00;;;;;5.19;77.57;101985.81;4975298;28;45166;-76
2023/01/31 07:03:54;;;;;;;;;9.00;9.00;;;;;5.35;76.85;101994.59;4963567;28;45410;-76
2023/01/31 07:06:21;;;;;;;;;14.50;13.50;;;;;5.31;77.15;101976.28;4972455;28;49447;-79
2023/01/31 07:08:46;;;;;;;;;12.50;12.50;;;;;5.40;77.13;101998.09;4969552;28;45337;-78
2023/01/31 07:11:12;;;;;;;;;8.25;8.25;;;;;5.41;77.40;101992.00;5058710;27;45538;-79
2023/01/31 07:13:37;;;;;;;;;7.00;7.00;;;;;5.46;76.83;102001.59;4975971;28;45160;-78
2023/01/31 07:16:03;;;;;;;;;9.75;9.75;;;;;5.43;77.40;101998.97;4975371;28;46270;-78
2023/01/31 07:18:28;;;;;;;;;8.50;8.50;;;;;5.24;76.96;101962.31;4973941;28;45405;-78
2023/01/31 07:20:53;;;;;;;;;6.00;6.00;;;;;5.40;76.54;101987.66;4971990;28;45574;-75
2023/01/31 07:23:19;;;;;;;;;7.50;7.50;;;;;5.40;76.37;101982.44;4959415;28;45639;-70
2023/01/31 07:25:44;;;;;;;;;11.75;10.00;;;;;5.53;76.75;101998.13;4971600;28;46429;-76
2023/01/31 07:28:11;;;;;;;;;9.50;8.25;;;;;5.35;76.54;101957.16;4969318;28;45470;-75
2023/01/31 07:30:36;;;;;;;;;8.00;6.25;;;;;5.59;76.71;101989.44;4979159;28;45683;-77
2023/01/31 07:33:02;;;;;;;;;8.50;8.50;;;;;5.54;76.82;101984.22;4973720;28;45259;-77
2023/01/31 07:35:27;;;;;;;;;10.25;10.25;;;;;5.64;76.61;102003.38;4973825;28;45455;-77
2023/01/31 07:37:53;;;;;;;;;9.00;9.00;;;;;5.64;76.22;102004.25;4972170;28;45431;-74
2023/01/31 07:40:19;;;;;;;;;14.50;14.50;;;;;5.62;76.54;102000.78;4976137;28;45469;-76
2023/01/31 07:42:44;;;;;;;;;7.00;7.00;;;;;5.67;76.00;102008.59;4973277;28;45698;-75
2023/01/31 07:45:12;;;;;;;;;6.50;6.50;;;;;5.63;76.12;101980.75;4973717;28;45288;-74
2023/01/31 07:47:37;;;;;;;;;10.00;8.50;;;;;5.69;76.30;101986.88;4973876;28;45432;-74
2023/01/31 07:50:03;;;;;;;;;10.75;10.25;;;;;5.65;76.10;101990.34;4971216;28;45430;-75
2023/01/31 07:52:30;;;;;;;;;8.25;8.25;;;;;5.72;75.64;101985.97;4974375;28;45468;-75
2023/01/31 07:54:56;;;;;;;;;11.00;10.75;;;;;5.72;75.51;101995.56;4974435;28;45281;-76
2023/01/31 07:57:21;;;;;;;;;11.25;11.25;;;;;5.77;75.38;101994.69;4974593;28;56833;-75
2023/01/31 07:59:46;;;;;;;;;13.00;12.75;;;;;5.85;75.44;102007.78;4972271;28;45373;-76
2023/01/31 08:04:58;;;;;;;;;21.00;19.25;;;;;5.60;75.50;101988.56;4973107;28;45410;-76
2023/01/31 08:07:25;;;;;;;;;12.25;12.25;;;;;5.72;75.29;102014.69;4973132;28;45354;-76
2023/01/31 08:09:50;;;;;;;;;10.25;10.25;;;;;5.69;75.10;102010.38;4973519;28;45227;-75
2023/01/31 08:12:15;;;;;;;;;6.50;6.50;;;;;5.72;76.07;102006.88;4972725;28;45320;-76
2023/01/31 08:14:41;;;;;;;;;7.75;7.75;;;;;5.73;75.41;102010.38;4972083;28;47194;-77
2023/01/31 08:17:07;;;;;;;;;7.00;7.00;;;;;5.77;74.77;102012.13;4973568;28;45253;-76
2023/01/31 08:19:34;;;;;;;;;7.75;7.75;;;;;5.69;75.43;101997.31;4973882;28;45260;-75
2023/01/31 08:22:00;;;;;;;;;11.00;11.00;;;;;5.83;75.36;102019.97;4973529;28;45315;-77
2023/01/31 08:24:25;;;;;;;;;11.75;9.75;;;;;5.78;75.27;102000.81;4972456;28;46683;-75
2023/01/31 08:26:51;;;;;;;;;7.00;7.00;;;;;5.91;75.35;102013.03;4971348;27;45429;-76
2023/01/31 08:29:17;;;;;;;;;8.75;8.75;;;;;5.92;74.41;102014.78;4973294;28;45488;-76
2023/01/31 08:31:42;;;;;;;;;9.00;9.00;;;;;5.97;74.81;102018.25;4974352;28;45397;-77
2023/01/31 08:34:08;;;;;;;;;12.50;12.00;;;;;6.04;74.99;102023.53;4973422;28;45657;-75
2023/01/31 08:36:34;;;;;;;;;11.75;11.75;;;;;6.08;74.79;102026.16;4973510;28;45438;-76
2023/01/31 08:39:00;;;;;;;;;12.00;11.00;;;;;6.13;74.65;102019.22;4973483;28;45400;-76
2023/01/31 08:41:27;;;;;;;;;10.50;10.00;;;;;6.15;74.50;102021.81;4973968;28;45358;-75
2023/01/31 08:43:54;;;;;;;;;11.75;8.75;;;;;6.13;74.46;102023.53;4972870;28;45936;-77
2023/01/31 08:46:20;;;;;;;;;10.00;9.75;;;;;6.19;73.96;102027.94;4973075;28;45406;-76
2023/01/31 08:48:45;;;;;;;;;11.00;11.00;;;;;6.13;74.42;102010.47;4974287;28;45279;-76
2023/01/31 08:51:12;;;;;;;;;7.75;7.75;;;;;6.22;73.25;102027.94;4973525;28;45394;-75
2023/01/31 08:53:40;;;;;;;;;13.50;13.50;;;;;6.23;74.57;102032.28;4978584;28;45399;-77
2023/01/31 08:56:07;;;;;;;;;14.00;14.00;;;;;6.18;73.46;102031.41;4975092;28;45212;-75
2023/01/31 08:58:34;;;;;;;;;13.00;13.00;;;;;6.24;73.19;102040.09;4974378;28;45374;-75
2023/01/31 09:01:04;;;;;;;;;11.50;11.00;;;;;6.25;73.58;102033.16;4971566;28;45440;-76
2023/01/31 09:03:29;;;;;;;;;13.00;13.00;;;;;6.25;72.88;102027.94;4954782;28;47812;-75
2023/01/31 09:06:00;;;;;;;;;10.25;10.25;;;;;6.08;73.07;101994.81;4974060;28;45267;-78
2023/01/31 09:08:25;;;;;;;;;11.25;11.25;;;;;6.26;73.18;102016.59;4978462;28;45342;-75
2023/01/31 09:10:54;;;;;;;;;7.00;6.00;;;;;6.33;72.95;102031.41;4977651;28;45356;-76
2023/01/31 09:13:21;;;;;;;;;8.50;8.50;;;;;6.35;72.44;102019.22;4975726;28;46951;-74
2023/01/31 09:15:46;;;;;;;;;12.25;12.25;;;;;6.33;72.50;102010.50;4976160;28;45308;-76
2023/01/31 09:18:11;;;;;;;;;12.00;12.00;;;;;6.42;72.61;102033.19;4977122;28;45424;-76
2023/01/31 09:20:37;;;;;;;;;11.00;11.00;;;;;6.33;73.15;102005.28;4974484;28;45584;-76
2023/01/31 09:23:02;;;;;;;;;13.75;13.75;;;;;6.35;72.53;102007.88;4975147;28;45182;-75
2023/01/31 09:25:28;;;;;;;;;13.25;13.25;;;;;6.42;72.95;102015.75;4974151;28;45913;-77
2023/01/31 09:27:53;;;;;;;;;16.25;16.00;;;;;6.55;71.80;102027.09;4975423;28;45480;-76
2023/01/31 09:30:20;;;;;;;;;15.50;15.50;;;;;6.61;72.36;102035.78;4977158;28;45410;-76
2023/01/31 09:32:46;;;;;;;;;13.50;13.25;;;;;6.64;72.45;102048.88;4977196;28;46391;-75
2023/01/31 09:35:12;;;;;;;;;11.00;11.00;;;;;6.69;71.58;102047.13;4973973;28;45582;-76
2023/01/31 09:37:38;;;;;;;;;15.75;15.75;;;;;6.70;72.12;102041.88;4975719;28;45344;-77
2023/01/31 09:40:05;;;;;;;;;14.50;14.50;;;;;6.72;71.78;102040.13;4975406;28;45626;-75
2023/01/31 09:42:38;;;;;;;;;17.75;17.75;;;;;6.83;71.72;102049.72;4973871;28;47569;-77
2023/01/31 09:45:10;;;;;;;;;14.25;14.25;;;;;6.88;71.15;102040.13;4975974;28;45417;-76
2023/01/31 09:47:45;;;;;;;;;12.25;12.25;;;;;6.93;71.38;102050.59;4976508;28;45439;-76
2023/01/31 09:50:30;;;;;;;;;16.50;16.50;;;;;6.94;71.76;102052.31;4975169;28;45390;-76
2023/01/31 09:52:57;;;;;;;;;12.00;11.50;;;;;6.87;70.90;102041.00;4973505;28;48233;-76
2023/01/31 09:55:37;;;;;;;;;13.50;11.75;;;;;6.95;70.76;102048.84;4975632;28;45316;-76
2023/01/31 09:58:34;;;;;;;;;11.50;11.50;;;;;7.00;70.78;102047.09;4975861;28;45248;-75
2023/01/31 10:01:08;;;;;;;;;11.50;10.50;;;;;7.05;70.94;102058.41;4975160;28;45474;-74
2023/01/31 10:03:58;;;;;;;;;12.25;12.25;;;;;7.12;70.51;102054.06;4974816;28;45402;-76
2023/01/31 10:06:31;;;;;;;;;12.25;12.25;;;;;7.18;70.77;102061.00;4975360;28;45408;-75
2023/01/31 10:09:12;;;;;;;;;13.75;13.50;;;;;7.21;70.14;102051.41;4975266;28;45330;-76
2023/01/31 10:11:46;;;;;;;;;12.50;12.00;;;;;7.27;69.70;102045.28;4975913;28;45244;-76
2023/01/31 10:14:30;;;;;;;;;17.00;17.00;;;;;7.31;70.11;102050.50;4975117;28;45244;-75
2023/01/31 10:17:23;;;;;;;;;15.00;14.00;;;;;7.36;69.75;102062.72;4974349;28;45363;-75
2023/01/31 10:20:09;;;;;;;;;8.50;8.50;;;;;7.32;68.90;102059.22;4974361;28;45405;-75
2023/01/31 10:23:06;;;;;;;;;11.25;11.00;;;;;7.24;68.93;102054.03;4975662;28;45391;-75
2023/01/31 10:25:43;;;;;;;;;12.75;12.75;;;;;7.28;69.40;102062.72;4974375;28;46551;-75
2023/01/31 10:28:12;;;;;;;;;12.50;11.50;;;;;7.30;69.69;102068.81;4974629;28;45424;-74
2023/01/31 10:31:09;;;;;;;;;14.50;14.50;;;;;7.34;69.56;102056.63;4974514;28;45332;-76
2023/01/31 10:33:37;;;;;;;;;11.75;11.75;;;;;7.39;69.80;102044.38;4974650;28;45343;-77
2023/01/31 10:36:12;;;;;;;;;21.00;20.75;;;;;7.47;69.29;102047.00;4973983;28;45441;-75
2023/01/31 10:38:54;;;;;;;;;7.00;7.00;;;;;7.45;68.63;102032.16;4974643;28;45314;-77
2023/01/31 10:41:30;;;;;;;;;14.25;13.25;;;;;7.61;68.65;102037.31;4974548;28;45395;-76
2023/01/31 10:44:02;;;;;;;;;14.00;12.00;;;;;7.70;68.40;102042.53;4975198;28;45273;-76
2023/01/31 10:46:27;;;;;;;;;13.25;13.25;;;;;7.75;68.06;102043.38;4974479;28;45597;-76
2023/01/31 10:48:53;;;;;;;;;14.50;14.50;;;;;7.79;68.45;102036.34;4974364;28;45341;-76
2023/01/31 10:51:27;;;;;;;;;13.50;13.50;;;;;7.88;67.76;102046.78;4974702;28;45456;-76
2023/01/31 10:54:11;;;;;;;;;13.25;13.25;;;;;7.92;67.29;102046.75;4975320;28;45419;-75
2023/01/31 10:56:43;;;;;;;;;11.50;11.50;;;;;7.95;67.56;102037.16;4974128;28;46942;-77
2023/01/31 10:59:32;;;;;;;;;13.50;13.50;;;;;7.99;67.05;102035.41;4972859;28;45629;-77
2023/01/31 11:02:01;;;;;;;;;15.50;15.50;;;;;8.06;67.17;102049.31;4974463;28;45483;-77
2023/01/31 11:04:29;;;;;;;;;18.50;18.50;;;;;8.07;67.43;102040.56;4976118;28;45314;-76
2023/01/31 11:06:57;;;;;;;;;16.25;14.50;;;;;8.05;67.06;102030.13;4973394;28;47375;-75
2023/01/31 11:09:25;;;;;;;;;15.50;15.50;;;;;8.06;66.85;102025.72;4974036;28;45280;-74
2023/01/31 11:11:57;;;;;;;;;18.50;18.25;;;;;8.06;66.82;102013.50;4973192;28;45402;-76
2023/01/31 11:14:22;;;;;;;;;20.50;20.00;;;;;8.08;67.15;102006.50;4975296;28;45402;-78
2023/01/31 11:16:50;;;;;;;;;18.75;18.25;;;;;7.90;67.29;101979.50;4974174;28;48430;-77
2023/01/31 11:19:44;;;;;;;;;17.00;17.00;;;;;8.16;66.74;102016.91;4972985;28;45232;-78
2023/01/31 11:22:23;;;;;;;;;14.25;14.25;;;;;8.21;66.81;102006.41;4980335;28;45229;-78
2023/01/31 11:24:49;;;;;;;;;12.00;12.00;;;;;8.22;66.25;102008.16;4974551;28;45284;-76
2023/01/31 11:27:30;;;;;;;;;14.00;14.00;;;;;8.19;66.46;101998.56;4972732;28;47654;-78
2023/01/31 11:29:59;;;;;;;;;15.50;14.00;;;;;8.15;65.79;101986.34;4973312;28;45394;-75
2023/01/31 11:32:28;;;;;;;;;15.25;15.25;;;;;8.23;65.90;101991.53;4973434;28;45529;-76